Potsdam, NY

44° 42' 44"N, 74° 57' 12"W, Elevation 460 ft.
Eastern Time

Hourly observations for the last 72 hours

Date Time Temperature (°F) Humi-
dity

(%)
Wind
(mph)
Pressure Rain (in)
Air Dew 6 Hour 1 Hr 3 Hr 6 Hr Day
Alt
(in)
Sea
Level

(mb)
Max Min
19 19:00 53.1 51.7 95 Calm 29.73 1006.8 0.01
19 18:00 53.1 51.7 95 NE 5 G 16 29.71 1006.2 0.01
19 17:00 53.1 51.7 95 N 0 G 11 29.66 1004.5 0.01 0.01
19 16:00 53.1 51.7 95 NNE 5 G 14 29.64 1003.7 0.01
19 15:00 53.1 51.7 95 N 1 G 5 29.63 1003.4 0.01 0.01
19 14:00 53.5 51.5 64.8 53.2 93 NE 3 G 11 29.63 1003.4 0.00
19 13:00 53.9 51.9 93 ENE 2 G 8 29.63 1003.6 0.00
19 12:00 53.5 50.0 88 N 3 G 9 29.65 1004.1 0.00
19 11:00 54.3 51.4 90 NE 0 G 3 29.64 1003.8 0.00
19 10:00 56.8 53.6 89 N 4 G 9 29.64 1003.8 0.00
19 09:00 58.0 53.8 86 NW 1 G 6 29.61 1002.8 0.00
19 08:00 64.8 52.8 64.8 64.8 65 N 0 G 5 29.58 1001.8 0.00
19 07:00 64.8 52.8 65 WNW 2 G 7 29.59 1002.1 0.00
19 06:00 64.8 52.8 65 SSW 2 G 8 29.57 1001.5 0.00
19 05:00 64.8 52.8 65 SSW 2 G 13 29.57 1001.4 0.00
19 04:00 64.8 52.8 65 SW 3 G 10 29.56 1001.1 0.00
19 03:00 64.8 52.8 65 SW 2 G 14 29.57 1001.2 0.00
19 02:00 64.8 52.8 64.8 64.8 65 WSW 4 G 13 29.57 1001.4 0.00
19 01:00 64.8 52.8 65 W 5 G 13 29.56 1001.0 0.00
19 00:00 64.8 52.8 65 SW 0 G 9 29.54 1000.4 0.00
18 23:00 64.8 52.8 65 S 0 G 11 29.55 1000.7 0.00
18 22:00 64.8 52.8 65 Calm 29.57 1001.3 0.00
18 21:00 64.8 52.8 65 Calm 29.58 1001.8 0.00
18 20:00 64.8 52.8 69.7 64.8 65 Calm 29.58 1001.7 0.00
18 19:00 64.8 52.8 65 S 0 G 2 29.58 1001.9 0.00
18 18:00 65.6 52.7 63 S 6 G 17 29.62 1003.0 0.00
18 17:00 66.1 50.9 58 S 8 G 24 29.62 1003.2 0.00
18 16:00 65.7 50.1 57 S 0 G 3 29.67 1004.7 0.00
18 15:00 66.7 49.0 53 S 12 G 24 29.68 1005.1 0.00
18 14:00 69.6 49.1 69.9 53.3 48 SSW 8 G 21 29.71 1006.1 0.00
18 13:00 69.2 48.7 48 SW 4 G 19 29.74 1007.0 0.00
18 12:00 64.6 46.6 52 S 6 G 18 29.76 1007.8 0.00
18 11:00 62.4 45.6 54 S 6 G 23 29.79 1008.9 0.00
18 10:00 55.6 41.1 58 S 0 G 15 29.81 1009.4 0.00
18 09:00 55.5 29.7 37 S 0 G 13 29.85 1010.9 0.00
18 08:00 55.5 29.7 55.5 55.5 37 Calm 29.88 1011.9 0.00
18 07:00 55.5 29.7 37 SSE 0 G 1 29.90 1012.5 0.00
18 06:00 55.5 29.7 37 Calm 29.92 1013.1 0.00
18 05:00 55.5 29.7 37 Calm 29.95 1014.2 0.00
18 04:00 55.5 29.7 37 Calm 29.96 1014.6 0.00
18 03:00 55.5 29.7 37 Calm 29.98 1015.3 0.00
18 02:00 55.5 29.7 55.5 55.5 37 Calm 30.01 1016.3 0.00
18 01:00 55.5 29.7 37 SE 3 G 10 30.04 1017.2 0.00
18 00:00 55.5 29.7 37 E 0 G 1 30.06 1018.1 0.00
17 23:00 55.5 29.7 37 E 0 G 2 30.09 1018.9 0.00
17 22:00 55.5 29.7 37 E 1 G 4 30.10 1019.2 0.00
17 21:00 55.5 29.7 37 E 3 G 9 30.10 1019.5 0.00
17 20:00 55.5 29.7 61.1 55.5 37 NE 0 G 4 30.10 1019.3 0.00
17 19:00 56.6 28.6 34 NE 2 G 8 30.10 1019.4 0.00
17 18:00 60.1 29.4 31 NW 2 G 9 30.10 1019.4 0.00
17 17:00 60.3 29.5 31 WSW 1 G 7 30.11 1019.6 0.00
17 16:00 59.8 30.6 33 N 3 G 8 30.12 1020.0 0.00
17 15:00 60.0 35.0 39 NNE 3 G 10 30.15 1020.9 0.00
17 14:00 58.0 33.8 58.3 41.1 40 SSE 2 G 6 30.17 1021.6 0.00
17 13:00 57.2 34.3 42 NW 3 G 7 30.17 1021.9 0.00
17 12:00 55.2 33.1 43 N 3 G 10 30.18 1022.1 0.00
17 11:00 52.3 34.2 50 NNW 3 G 6 30.18 1022.0 0.00
17 10:00 48.4 38.7 69 SSW 1 G 6 30.18 1022.1 0.00
17 09:00 42.5 37.7 83 S 3 G 7 30.18 1022.2 0.00
17 08:00 48.0 29.8 48.0 48.0 49 S 1 G 5 30.17 1021.8 0.00
17 07:00 48.0 29.8 49 Calm 30.15 1021.0 0.00
17 06:00 48.0 29.8 49 Calm 30.13 1020.2 0.00
17 05:00 48.0 29.8 49 S 3 G 7 30.11 1019.6 0.00
17 04:00 48.0 29.8 49 SSE 0 G 4 30.10 1019.5 0.00
17 03:00 48.0 29.8 49 S 0 G 3 30.08 1018.7 0.00
17 02:00 48.0 29.8 48.0 48.0 49 SSW 0 G 6 30.08 1018.6 0.00
17 01:00 48.0 29.8 49 SSW 2 G 5 30.07 1018.2 0.00
17 00:00 48.0 29.8 49 S 2 G 7 30.06 1018.0 0.00
16 23:00 48.0 29.8 49 S 0 G 5 30.05 1017.6 0.00
16 22:00 48.0 29.8 49 NNW 0 G 2 30.05 1017.5 0.00
16 21:00 48.0 29.8 49 Calm 30.03 1016.9 0.00
16 20:00 48.0 29.8 53.7 48.0 49 NNW 0 G 1 30.01 1016.4 0.00

Data generated by WxSolution Version 1.9.1.5, Build 2018.05.20.